Time;durP1;ratioP1;P1;durP2;ratioP2;P2;SDS_P1;SDS_P2;PMS_P1;PMS_P2;Temp;Humidity;BMP_temperature;BMP_pressure;BME280_temperature;BME280_humidity;BME280_pressure;Samples;Min_cycle;Max_cycle;Signal;HPM_P1;HPM_P2
2022/01/05 00:01:00;;;;;;;;;;;;;;;2.86;98.48;94991.75;5057899;28;20050;-75
2022/01/05 00:03:26;;;;;;;;;;;;;;;2.85;98.92;95001.31;5054763;28;19963;-76
2022/01/05 00:05:55;;;;;;;;;;;;;;;2.86;99.09;95002.13;5067021;28;19967;-76
2022/01/05 00:08:24;;;;;;;;;;;;;;;2.86;99.22;94996.94;5055182;28;19977;-76
2022/01/05 00:10:54;;;;;;;;;;;;;;;2.86;99.15;94999.53;5051219;28;19964;-75
2022/01/05 00:13:20;;;;;;;;;;;;;;;2.84;98.95;95007.50;5030430;28;19962;-75
2022/01/05 00:15:47;;;;;;;;;;;;;;;2.89;99.64;95021.63;5060195;28;20369;-75
2022/01/05 00:18:13;;;;;;;;;;;;;;;2.90;99.48;95018.84;5028762;28;20047;-77
2022/01/05 00:20:39;;;;;;;;;;;;;;;2.91;98.85;95004.88;5055896;28;19963;-75
2022/01/05 00:23:08;;;;;;;;;;;;;;;2.88;98.74;95004.47;5044686;28;19976;-75
2022/01/05 00:25:34;;;;;;;;;;;;;;;2.87;99.03;94995.94;5057173;28;19972;-75
2022/01/05 00:28:00;;;;;;;;;;;;;;;2.87;99.27;94979.59;5057611;28;19965;-75
2022/01/05 00:30:26;;;;;;;;;;;;;;;2.90;99.52;94982.59;5053537;28;19965;-75
2022/01/05 00:32:55;;;;;;;;;;;;;;;2.92;99.20;94992.72;5065318;28;19964;-75
2022/01/05 00:35:27;;;;;;;;;;;;;;;2.93;99.21;94989.94;5063422;28;19973;-76
2022/01/05 00:37:53;;;;;;;;;;;;;;;2.93;98.70;94965.84;5052569;28;20452;-76
2022/01/05 00:40:18;;;;;;;;;;;;;;;2.92;98.72;94957.28;5049573;28;19970;-77
2022/01/05 00:42:44;;;;;;;;;;;;;;;2.91;98.54;94957.47;5041640;28;19961;-76
2022/01/05 00:45:10;;;;;;;;;;;;;;;2.91;99.19;94955.69;5062415;28;20401;-77
2022/01/05 00:47:36;;;;;;;;;;;;;;;2.94;99.00;94949.28;5057151;28;19961;-77
2022/01/05 00:50:02;;;;;;;;;;;;;;;2.95;98.86;94943.13;5049503;28;20078;-76
2022/01/05 00:52:28;;;;;;;;;;;;;;;2.92;98.81;94933.97;5054884;28;19969;-77
2022/01/05 00:54:54;;;;;;;;;;;;;;;2.92;99.11;94920.22;5070954;28;20036;-77
2022/01/05 00:57:21;;;;;;;;;;;;;;;2.93;98.81;94927.78;5055622;28;20332;-75
2022/01/05 00:59:47;;;;;;;;;;;;;;;2.93;98.58;94934.78;5046549;28;19962;-75
2022/01/05 01:02:13;;;;;;;;;;;;;;;2.92;99.16;94946.13;5061237;28;20406;-75
2022/01/05 01:04:39;;;;;;;;;;;;;;;2.91;98.95;94953.09;5063031;28;19961;-76
2022/01/05 01:07:05;;;;;;;;;;;;;;;2.89;99.07;94949.91;5049429;28;19960;-76
2022/01/05 01:09:31;;;;;;;;;;;;;;;2.92;99.03;94951.28;5050303;28;20455;-76
2022/01/05 01:11:57;;;;;;;;;;;;;;;2.94;99.70;94941.53;5053980;28;19956;-77
2022/01/05 01:14:23;;;;;;;;;;;;;;;2.96;99.09;94940.34;5058630;28;19985;-76
2022/01/05 01:16:48;;;;;;;;;;;;;;;2.97;99.33;94939.31;5055282;28;19980;-77
2022/01/05 01:19:14;;;;;;;;;;;;;;;2.99;99.16;94939.13;5058166;28;20027;-76
2022/01/05 01:21:40;;;;;;;;;;;;;;;2.99;99.67;94952.06;5048789;28;19991;-76
2022/01/05 01:24:06;;;;;;;;;;;;;;;2.99;99.16;94965.81;5045644;28;20330;-76
2022/01/05 01:26:33;;;;;;;;;;;;;;;2.97;99.34;94973.00;5054350;28;19968;-76
2022/01/05 01:28:59;;;;;;;;;;;;;;;2.97;99.18;94980.75;5058625;28;19960;-76
2022/01/05 01:31:26;;;;;;;;;;;;;;;2.96;99.61;94978.34;5051197;28;19956;-75
2022/01/05 01:33:52;;;;;;;;;;;;;;;2.98;100.00;94986.72;5042186;28;19960;-75
2022/01/05 01:36:18;;;;;;;;;;;;;;;2.99;100.00;94988.31;5072325;28;19978;-75
2022/01/05 01:38:44;;;;;;;;;;;;;;;2.99;100.00;94972.78;5051580;28;19970;-75
2022/01/05 01:41:11;;;;;;;;;;;;;;;3.00;100.00;94967.41;5051877;28;19965;-76
2022/01/05 01:43:37;;;;;;;;;;;;;;;2.99;100.00;94968.41;5073219;28;19980;-75
2022/01/05 01:46:04;;;;;;;;;;;;;;;3.02;100.00;94960.22;5054406;28;19959;-75
2022/01/05 01:48:30;;;;;;;;;;;;;;;3.03;100.00;94963.59;5051093;28;19963;-77
2022/01/05 01:50:57;;;;;;;;;;;;;;;3.03;100.00;94971.38;5034360;28;19989;-76
2022/01/05 01:53:23;;;;;;;;;;;;;;;3.05;100.00;94977.94;5060589;28;20459;-75
2022/01/05 01:55:49;;;;;;;;;;;;;;;3.07;100.00;94982.91;5054697;28;19973;-75
2022/01/05 01:58:16;;;;;;;;;;;;;;;3.08;100.00;94979.31;5049349;28;19953;-75
2022/01/05 02:00:42;;;;;;;;;;;;;;;3.11;100.00;94988.44;5048780;28;19953;-76
2022/01/05 02:03:08;;;;;;;;;;;;;;;3.15;100.00;94995.63;5048907;28;19976;-76
2022/01/05 02:05:34;;;;;;;;;;;;;;;3.14;100.00;94991.44;5051734;28;19967;-78
2022/01/05 02:08:01;;;;;;;;;;;;;;;3.17;100.00;94990.22;5051411;28;20309;-78
2022/01/05 02:10:27;;;;;;;;;;;;;;;3.19;100.00;94986.44;5054404;28;19963;-77
2022/01/05 02:12:53;;;;;;;;;;;;;;;3.21;100.00;94986.22;5055187;28;20002;-78
2022/01/05 02:15:20;;;;;;;;;;;;;;;3.24;100.00;94994.38;5048689;28;19961;-77
2022/01/05 02:18:07;;;;;;;;;;;;;;;3.24;100.00;94991.00;5054517;28;19972;-76
2022/01/05 02:20:33;;;;;;;;;;;;;;;3.24;100.00;94984.00;5051572;28;20344;-76
2022/01/05 02:22:59;;;;;;;;;;;;;;;3.27;100.00;94982.00;5051038;28;19964;-76
2022/01/05 02:25:25;;;;;;;;;;;;;;;3.29;100.00;94991.16;5063565;28;20006;-76
2022/01/05 02:27:52;;;;;;;;;;;;;;;3.32;100.00;94987.34;5056949;28;19961;-75
2022/01/05 02:30:20;;;;;;;;;;;;;;;3.33;100.00;94988.94;5055246;28;19953;-76
2022/01/05 02:32:47;;;;;;;;;;;;;;;3.34;100.00;94990.53;5041631;28;19958;-75
2022/01/05 02:35:13;;;;;;;;;;;;;;;3.34;100.00;95001.69;5047141;28;19969;-75
2022/01/05 02:37:42;;;;;;;;;;;;;;;3.36;100.00;95004.06;5066680;28;20068;-75
2022/01/05 02:40:09;;;;;;;;;;;;;;;3.38;100.00;95015.00;5058859;28;19962;-75
2022/01/05 02:42:35;;;;;;;;;;;;;;;3.39;100.00;95012.22;5052099;28;20309;-75
2022/01/05 02:45:01;;;;;;;;;;;;;;;3.42;100.00;95005.81;5046258;28;19987;-75
2022/01/05 02:47:27;;;;;;;;;;;;;;;3.44;100.00;95014.19;5063294;28;20421;-75
2022/01/05 02:49:56;;;;;;;;;;;;;;;3.44;99.89;95015.00;5061245;28;19985;-76
2022/01/05 02:52:23;;;;;;;;;;;;;;;3.44;98.99;95009.00;5044207;28;20407;-75
2022/01/05 02:54:49;;;;;;;;;;;;;;;3.43;99.55;95013.41;5047394;28;20010;-74
2022/01/05 02:57:24;;;;;;;;;;;;;;;3.43;99.71;95028.16;5057138;28;19982;-74
2022/01/05 02:59:50;;;;;;;;;;;;;;;3.40;99.86;95023.38;5058879;28;19984;-75
2022/01/05 03:02:16;;;;;;;;;;;;;;;3.38;99.60;95023.59;5068980;28;19969;-75
2022/01/05 03:04:42;;;;;;;;;;;;;;;3.36;99.92;95035.97;5058185;28;20377;-75
2022/01/05 03:07:08;;;;;;;;;;;;;;;3.35;99.12;95029.19;5057684;28;20354;-75
2022/01/05 03:09:34;;;;;;;;;;;;;;;3.35;99.31;95025.81;5050145;28;19961;-74
2022/01/05 03:12:00;;;;;;;;;;;;;;;3.33;99.13;95031.19;5061389;28;19963;-75
2022/01/05 03:14:26;;;;;;;;;;;;;;;3.29;98.63;95024.81;5057854;28;20291;-75
2022/01/05 03:16:52;;;;;;;;;;;;;;;3.28;98.90;95043.19;5067500;28;19978;-77
2022/01/05 03:19:18;;;;;;;;;;;;;;;3.27;99.30;95041.59;5056893;28;19966;-75
2022/01/05 03:21:44;;;;;;;;;;;;;;;3.22;98.81;95034.44;5054359;28;20460;-75
2022/01/05 03:24:10;;;;;;;;;;;;;;;3.18;98.84;95044.41;5048583;28;20012;-75
2022/01/05 03:26:36;;;;;;;;;;;;;;;3.16;99.78;95041.22;5038876;28;19959;-75
2022/01/05 03:29:02;;;;;;;;;;;;;;;3.15;99.78;95041.44;5057851;28;20389;-75
2022/01/05 03:31:33;;;;;;;;;;;;;;;3.17;100.00;95042.03;5065099;28;20369;-77
2022/01/05 03:33:59;;;;;;;;;;;;;;;3.18;100.00;95031.47;5048882;28;20324;-75
2022/01/05 03:36:25;;;;;;;;;;;;;;;3.16;99.05;95030.88;5061604;28;19974;-75
2022/01/05 03:38:51;;;;;;;;;;;;;;;3.14;99.87;95030.28;5038138;28;20430;-75
2022/01/05 03:41:17;;;;;;;;;;;;;;;3.14;100.00;95034.69;5062892;28;19955;-78
2022/01/05 03:43:43;;;;;;;;;;;;;;;3.14;100.00;95034.69;5060887;28;19964;-75
2022/01/05 03:46:09;;;;;;;;;;;;;;;3.13;99.99;95043.44;5062617;28;19956;-75
2022/01/05 03:48:34;;;;;;;;;;;;;;;3.11;99.82;95037.66;5055774;28;19961;-77
2022/01/05 03:51:00;;;;;;;;;;;;;;;3.11;100.00;95056.59;5037589;28;19983;-77
2022/01/05 03:53:26;;;;;;;;;;;;;;;3.11;99.98;95056.59;5075240;28;19962;-79
2022/01/05 03:55:52;;;;;;;;;;;;;;;3.09;99.70;95055.19;5058790;28;19970;-77
2022/01/05 03:58:18;;;;;;;;;;;;;;;3.09;99.69;95061.19;5062591;28;20334;-77
2022/01/05 04:00:46;;;;;;;;;;;;;;;3.10;99.61;95067.16;5033908;28;19961;-76
2022/01/05 04:03:12;;;;;;;;;;;;;;;3.08;99.79;95063.97;5068167;28;19957;-76
2022/01/05 04:05:38;;;;;;;;;;;;;;;3.09;99.26;95075.91;5058941;28;19964;-75
2022/01/05 04:08:04;;;;;;;;;;;;;;;3.08;99.75;95072.53;5060449;28;20443;-76
2022/01/05 04:10:30;;;;;;;;;;;;;;;3.05;98.84;95070.38;5055365;28;19969;-76
2022/01/05 04:12:56;;;;;;;;;;;;;;;3.04;98.62;95069.59;5053089;28;19963;-75
2022/01/05 04:15:23;;;;;;;;;;;;;;;3.00;98.07;95065.81;5056538;28;19950;-76
2022/01/05 04:17:48;;;;;;;;;;;;;;;2.95;98.54;95077.78;5053708;28;19973;-75
2022/01/05 04:20:15;;;;;;;;;;;;;;;2.91;98.67;95085.13;5051173;28;19970;-75
2022/01/05 04:22:41;;;;;;;;;;;;;;;2.91;98.56;95082.56;5038844;28;19967;-76
2022/01/05 04:25:07;;;;;;;;;;;;;;;2.90;97.86;95077.56;5060561;28;19952;-78
2022/01/05 04:27:33;;;;;;;;;;;;;;;2.87;97.80;95090.94;5057594;28;19966;-76
2022/01/05 04:29:59;;;;;;;;;;;;;;;2.81;98.67;95088.16;5055581;28;19962;-75
2022/01/05 04:32:25;;;;;;;;;;;;;;;2.81;98.64;95088.16;5055052;28;20019;-79
2022/01/05 04:34:51;;;;;;;;;;;;;;;2.80;98.63;95094.34;5038957;28;19951;-80
2022/01/05 04:37:18;;;;;;;;;;;;;;;2.81;98.65;95097.72;5068045;28;19972;-76
2022/01/05 04:39:44;;;;;;;;;;;;;;;2.82;98.98;95105.28;5052380;28;19951;-76
2022/01/05 04:42:12;;;;;;;;;;;;;;;2.84;99.76;95112.84;5055753;28;20089;-77
2022/01/05 04:44:38;;;;;;;;;;;;;;;2.87;99.53;95117.63;5051910;28;20414;-78
2022/01/05 04:47:05;;;;;;;;;;;;;;;2.90;99.72;95117.22;5052294;28;19963;-77
2022/01/05 04:49:34;;;;;;;;;;;;;;;2.89;99.70;95118.22;5058717;28;19954;-77
2022/01/05 04:52:00;;;;;;;;;;;;;;;2.90;99.61;95132.75;5057212;28;19988;-77
2022/01/05 04:54:26;;;;;;;;;;;;;;;2.91;100.00;95141.31;5053662;28;19970;-77
2022/01/05 04:56:51;;;;;;;;;;;;;;;2.92;100.00;95151.47;5058836;28;20420;-79
2022/01/05 04:59:17;;;;;;;;;;;;;;;2.92;99.99;95151.47;5063237;28;19958;-78
2022/01/05 05:01:43;;;;;;;;;;;;;;;2.95;99.58;95145.09;5059091;28;19962;-79
2022/01/05 05:04:09;;;;;;;;;;;;;;;2.96;99.32;95149.25;5053558;28;19951;-78
2022/01/05 05:06:35;;;;;;;;;;;;;;;2.96;99.39;95149.25;5052871;28;20012;-77
2022/01/05 05:09:01;;;;;;;;;;;;;;;2.97;99.18;95150.88;5040416;28;20407;-78
2022/01/05 05:11:30;;;;;;;;;;;;;;;2.97;99.16;95162.00;5053546;28;19959;-77
2022/01/05 05:13:56;;;;;;;;;;;;;;;2.99;99.34;95160.03;5048821;28;19953;-77
2022/01/05 05:16:22;;;;;;;;;;;;;;;3.04;99.09;95164.59;5055880;28;19970;-76
2022/01/05 05:18:48;;;;;;;;;;;;;;;3.08;98.84;95170.16;5053416;28;19965;-77
2022/01/05 05:21:14;;;;;;;;;;;;;;;3.09;98.40;95169.16;5059565;28;19962;-75
2022/01/05 05:23:40;;;;;;;;;;;;;;;3.11;98.68;95169.75;5055454;28;19960;-75
2022/01/05 05:26:06;;;;;;;;;;;;;;;3.11;98.98;95173.16;5044168;28;20040;-74
2022/01/05 05:28:32;;;;;;;;;;;;;;;3.12;98.43;95179.91;5035303;28;19968;-74
2022/01/05 05:30:58;;;;;;;;;;;;;;;3.13;98.65;95188.47;5061763;28;19962;-74
2022/01/05 05:33:23;;;;;;;;;;;;;;;3.08;97.30;95190.88;5045302;28;19987;-74
2022/01/05 05:35:49;;;;;;;;;;;;;;;3.04;96.49;95201.66;5058028;28;20020;-75
2022/01/05 05:38:15;;;;;;;;;;;;;;;3.00;95.44;95200.47;5047952;28;20016;-76
2022/01/05 05:40:42;;;;;;;;;;;;;;;2.95;93.75;95207.25;5060422;28;19992;-74
2022/01/05 05:43:08;;;;;;;;;;;;;;;2.91;93.48;95219.00;5069103;28;19968;-75
2022/01/05 05:45:34;;;;;;;;;;;;;;;2.86;94.61;95222.19;5042589;28;20371;-74
2022/01/05 05:48:00;;;;;;;;;;;;;;;2.83;94.58;95232.91;5047196;28;19963;-74
2022/01/05 05:50:26;;;;;;;;;;;;;;;2.80;93.26;95244.47;5058656;28;20442;-76
2022/01/05 05:52:52;;;;;;;;;;;;;;;2.75;93.86;95248.66;5058794;28;19966;-76
2022/01/05 05:55:18;;;;;;;;;;;;;;;2.71;93.79;95262.97;5049621;28;19959;-74
2022/01/05 05:57:44;;;;;;;;;;;;;;;2.68;95.05;95263.38;5057430;28;20022;-74
2022/01/05 06:00:10;;;;;;;;;;;;;;;2.65;95.07;95267.19;5055093;28;19964;-75
2022/01/05 06:02:36;;;;;;;;;;;;;;;2.58;94.76;95269.75;5056997;28;19971;-75
2022/01/05 06:05:05;;;;;;;;;;;;;;;2.53;94.95;95282.47;5056714;28;20345;-75
2022/01/05 06:07:31;;;;;;;;;;;;;;;2.49;95.92;95283.84;5039864;28;19959;-75
2022/01/05 06:09:58;;;;;;;;;;;;;;;2.47;96.23;95287.63;5053169;28;19981;-75
2022/01/05 06:12:25;;;;;;;;;;;;;;;2.46;95.72;95291.19;5056544;28;20310;-75
2022/01/05 06:14:50;;;;;;;;;;;;;;;2.42;95.73;95290.81;5061715;28;19961;-76
2022/01/05 06:17:18;;;;;;;;;;;;;;;2.42;95.82;95306.34;5042816;28;19968;-76
2022/01/05 06:19:43;;;;;;;;;;;;;;;2.40;95.21;95308.31;5052578;28;19971;-75
2022/01/05 06:22:12;;;;;;;;;;;;;;;2.32;94.98;95308.50;5053905;28;19979;-75
2022/01/05 06:24:42;;;;;;;;;;;;;;;2.24;94.79;95312.03;5061112;28;20378;-75
2022/01/05 06:27:09;;;;;;;;;;;;;;;2.19;94.98;95333.31;5051150;28;19985;-75
2022/01/05 06:29:40;;;;;;;;;;;;;;;2.18;94.62;95330.91;5062508;28;20339;-73
2022/01/05 06:32:06;;;;;;;;;;;;;;;2.14;93.22;95335.69;5045036;28;19955;-74
2022/01/05 06:34:32;;;;;;;;;;;;;;;2.14;94.36;95345.22;5054849;28;20330;-74
2022/01/05 06:36:58;;;;;;;;;;;;;;;2.12;92.83;95357.53;5070166;28;20332;-74
2022/01/05 06:39:24;;;;;;;;;;;;;;;2.08;92.23;95351.97;5045296;28;19962;-73
2022/01/05 06:41:50;;;;;;;;;;;;;;;2.06;92.46;95359.13;5058454;28;19963;-75
2022/01/05 06:44:16;;;;;;;;;;;;;;;2.02;92.35;95366.44;5070887;28;19964;-74
2022/01/05 06:46:42;;;;;;;;;;;;;;;1.99;92.08;95360.84;5056660;28;19958;-76
2022/01/05 06:49:08;;;;;;;;;;;;;;;1.97;92.39;95376.56;5055750;28;20040;-74
2022/01/05 06:51:34;;;;;;;;;;;;;;;1.94;92.68;95378.75;5058554;28;20465;-76
2022/01/05 06:54:03;;;;;;;;;;;;;;;1.88;91.58;95375.13;5063454;28;19987;-75
2022/01/05 06:56:29;;;;;;;;;;;;;;;1.83;91.81;95380.84;5048953;28;19969;-76
2022/01/05 06:58:54;;;;;;;;;;;;;;;1.79;92.43;95387.41;5044591;28;20012;-79
2022/01/05 07:01:20;;;;;;;;;;;;;;;1.74;90.65;95407.84;5059379;28;20409;-75
2022/01/05 07:03:46;;;;;;;;;;;;;;;1.71;91.60;95407.41;5062776;28;20378;-75
2022/01/05 07:06:12;;;;;;;;;;;;;;;1.71;90.63;95421.13;5067114;28;19960;-75
2022/01/05 07:08:39;;;;;;;;;;;;;;;1.63;90.26;95405.75;5046226;28;20401;-75
2022/01/05 07:11:05;;;;;;;;;;;;;;;1.64;90.49;95417.72;5052397;28;19951;-77
2022/01/05 07:13:31;;;;;;;;;;;;;;;1.60;88.09;95427.63;5067927;28;19976;-78
2022/01/05 07:15:57;;;;;;;;;;;;;;;1.55;86.83;95440.28;5054813;28;19958;-76
2022/01/05 07:18:23;;;;;;;;;;;;;;;1.49;88.26;95440.22;5043241;28;20018;-75
2022/01/05 07:20:49;;;;;;;;;;;;;;;1.50;88.89;95452.16;5065933;28;19956;-75
2022/01/05 07:23:15;;;;;;;;;;;;;;;1.50;88.94;95441.84;5064551;28;19955;-75
2022/01/05 07:25:41;;;;;;;;;;;;;;;1.44;87.86;95455.50;5060038;28;19970;-75
2022/01/05 07:28:08;;;;;;;;;;;;;;;1.39;85.68;95467.19;5058342;28;20032;-76
2022/01/05 07:30:34;;;;;;;;;;;;;;;1.33;86.97;95467.91;5053007;28;19966;-75
2022/01/05 07:33:00;;;;;;;;;;;;;;;1.30;85.54;95488.13;5068702;28;19961;-75
2022/01/05 07:35:26;;;;;;;;;;;;;;;1.27;86.00;95481.56;5057814;28;19965;-75
2022/01/05 07:37:51;;;;;;;;;;;;;;;1.22;83.95;95491.66;5055779;28;19972;-75
2022/01/05 07:40:17;;;;;;;;;;;;;;;1.19;84.68;95503.13;5057556;28;20039;-75
2022/01/05 07:42:43;;;;;;;;;;;;;;;1.16;84.60;95500.13;5059266;28;20064;-75
2022/01/05 07:45:09;;;;;;;;;;;;;;;1.12;83.65;95511.78;5048201;28;20001;-75
2022/01/05 07:47:36;;;;;;;;;;;;;;;1.10;84.12;95514.56;5065320;28;19953;-75
2022/01/05 07:50:02;;;;;;;;;;;;;;;1.09;84.91;95510.38;5057175;28;19986;-74
2022/01/05 07:52:32;;;;;;;;;;;;;;;1.08;83.73;95520.88;5041386;28;19971;-75
2022/01/05 07:54:59;;;;;;;;;;;;;;;1.06;86.10;95523.63;5049192;28;19950;-75
2022/01/05 07:57:25;;;;;;;;;;;;;;;1.10;85.08;95519.72;5063170;28;20458;-75
2022/01/05 07:59:51;;;;;;;;;;;;;;;1.12;82.81;95535.03;5056389;28;19960;-75
2022/01/05 08:02:17;;;;;;;;;;;;;;;1.13;84.27;95539.19;5033058;28;19955;-74
2022/01/05 08:04:48;;;;;;;;;;;;;;;1.14;84.20;95540.81;5072272;28;20387;-75
2022/01/05 08:07:14;;;;;;;;;;;;;;;1.16;85.47;95551.75;5068388;28;19960;-76
2022/01/05 08:09:40;;;;;;;;;;;;;;;1.18;83.14;95549.81;5052568;28;19963;-74
2022/01/05 08:12:06;;;;;;;;;;;;;;;1.20;85.86;95560.75;5050176;28;20449;-74
2022/01/05 08:14:32;;;;;;;;;;;;;;;1.23;85.77;95560.38;5065141;28;20304;-74
2022/01/05 08:16:58;;;;;;;;;;;;;;;1.26;83.74;95569.53;5045232;28;20015;-75
2022/01/05 08:19:24;;;;;;;;;;;;;;;1.19;82.32;95569.47;5040940;28;20330;-76
2022/01/05 08:21:50;;;;;;;;;;;;;;;1.06;78.24;95566.75;5041367;28;19961;-75
2022/01/05 08:24:16;;;;;;;;;;;;;;;0.96;79.18;95574.75;5058031;28;20012;-75
2022/01/05 08:26:41;;;;;;;;;;;;;;;0.93;78.18;95569.94;5041166;28;19966;-74
2022/01/05 08:29:07;;;;;;;;;;;;;;;0.97;80.60;95595.22;5074511;28;19955;-75
2022/01/05 08:31:33;;;;;;;;;;;;;;;1.18;79.27;95599.66;5054969;28;19954;-74
2022/01/05 08:33:59;;;;;;;;;;;;;;;1.42;80.34;95621.78;5057533;28;20050;-75
2022/01/05 08:36:26;;;;;;;;;;;;;;;1.62;78.54;95614.28;5056426;28;19966;-74
2022/01/05 08:38:51;;;;;;;;;;;;;;;1.79;77.01;95611.47;5053549;28;19974;-75
2022/01/05 08:41:17;;;;;;;;;;;;;;;1.74;76.15;95614.63;5063427;28;19964;-74
2022/01/05 08:43:43;;;;;;;;;;;;;;;1.60;78.41;95649.06;5044112;28;20051;-74
2022/01/05 08:46:09;;;;;;;;;;;;;;;1.53;79.18;95642.97;5060422;28;19956;-74
2022/01/05 08:48:39;;;;;;;;;;;;;;;1.45;75.45;95612.91;5048972;28;19969;-75
2022/01/05 08:51:05;;;;;;;;;;;;;;;1.45;77.88;95646.50;5054029;28;19983;-75
2022/01/05 08:53:31;;;;;;;;;;;;;;;1.38;76.64;95643.00;5068743;28;19969;-75
2022/01/05 08:55:56;;;;;;;;;;;;;;;1.34;75.80;95639.19;5053130;28;19960;-75
2022/01/05 08:58:22;;;;;;;;;;;;;;;1.30;77.77;95658.59;5058599;28;20500;-74
2022/01/05 09:00:49;;;;;;;;;;;;;;;1.25;73.89;95646.22;5056684;28;19965;-74
2022/01/05 09:03:15;;;;;;;;;;;;;;;1.22;77.72;95667.25;5059820;28;19965;-75
2022/01/05 09:05:41;;;;;;;;;;;;;;;1.19;79.24;95693.41;5065406;28;19957;-75
2022/01/05 09:08:07;;;;;;;;;;;;;;;1.15;77.26;95680.06;5053738;28;20354;-74
2022/01/05 09:10:34;;;;;;;;;;;;;;;1.15;77.52;95679.25;5056718;28;19993;-74
2022/01/05 09:13:00;;;;;;;;;;;;;;;1.42;76.92;95681.22;5061362;28;20313;-75
2022/01/05 09:15:26;;;;;;;;;;;;;;;1.76;72.65;95664.31;5054006;28;20018;-75
2022/01/05 09:17:52;;;;;;;;;;;;;;;2.16;76.12;95689.81;5046279;28;19969;-75
2022/01/05 09:20:19;;;;;;;;;;;;;;;2.54;78.79;95700.75;5046776;28;19976;-75
2022/01/05 09:22:45;;;;;;;;;;;;;;;2.74;74.26;95677.59;5043361;28;19962;-74
2022/01/05 09:25:12;;;;;;;;;;;;;;;2.79;72.11;95666.66;5046503;28;20345;-77
2022/01/05 09:27:38;;;;;;;;;;;;;;;2.81;65.79;95603.38;5064466;28;19954;-74
2022/01/05 09:30:06;;;;;;;;;;;;;;;2.98;67.81;95645.31;5050480;28;19951;-74
2022/01/05 09:32:32;;;;;;;;;;;;;;;2.96;68.63;95642.09;5071471;28;19962;-75
2022/01/05 09:34:58;;;;;;;;;;;;;;;2.89;71.99;95684.47;5067964;28;19967;-75
2022/01/05 09:37:31;;;;;;;;;;;;;;;2.94;71.26;95677.75;5073017;28;19969;-76
2022/01/05 09:42:42;;;;;;;;;;;;;;;3.22;70.34;95679.53;5064294;28;19965;-75
2022/01/05 09:45:14;;;;;;;;;;;;;;;3.24;71.03;95691.28;5057506;28;19967;-75
2022/01/05 09:47:59;;;;;;;;;;;;;;;3.17;72.76;95702.59;5060337;28;19964;-76
2022/01/05 09:50:25;;;;;;;;;;;;;;;2.96;71.41;95693.06;5056430;28;19983;-75
2022/01/05 09:52:51;;;;;;;;;;;;;;;2.68;67.88;95654.25;5056090;28;19974;-75
2022/01/05 09:55:17;;;;;;;;;;;;;;;2.36;69.74;95690.00;5046667;28;19966;-75
2022/01/05 09:57:44;;;;;;;;;;;;;;;1.99;66.55;95660.78;5032671;28;20321;-75
2022/01/05 10:00:11;;;;;;;;;;;;;;;1.74;64.66;95649.97;5050871;28;19963;-78
2022/01/05 10:02:38;;;;;;;;;;;;;;;1.57;67.46;95668.28;5055360;28;20423;-76
2022/01/05 10:05:05;;;;;;;;;;;;;;;1.36;68.87;95704.38;5043228;28;20407;-74
2022/01/05 10:07:31;;;;;;;;;;;;;;;1.21;68.22;95694.03;5053728;28;19980;-75
2022/01/05 10:09:57;;;;;;;;;;;;;;;1.14;66.45;95686.22;5061031;28;20418;-75
2022/01/05 10:12:23;;;;;;;;;;;;;;;1.05;67.56;95701.94;5036643;28;20419;-74
2022/01/05 10:14:49;;;;;;;;;;;;;;;0.99;69.17;95724.94;5063725;28;19962;-74
2022/01/05 10:17:21;;;;;;;;;;;;;;;1.05;68.32;95725.19;5051918;28;19960;-74
2022/01/05 10:19:54;;;;;;;;;;;;;;;1.09;68.93;95721.28;5021458;28;19962;-74
2022/01/05 10:22:27;;;;;;;;;;;;;;;1.06;67.04;95703.56;5058088;28;19960;-75
2022/01/05 10:24:56;;;;;;;;;;;;;;;1.05;67.86;95707.13;5061757;28;19959;-74
2022/01/05 10:27:23;;;;;;;;;;;;;;;1.20;67.99;95721.66;5058443;28;19954;-74
2022/01/05 10:29:53;;;;;;;;;;;;;;;1.48;68.01;95722.84;5056158;28;19969;-74
2022/01/05 10:32:20;;;;;;;;;;;;;;;1.55;67.18;95727.09;5054457;28;20056;-74
2022/01/05 10:35:03;;;;;;;;;;;;;;;1.59;70.15;95763.72;5041983;28;19950;-73
2022/01/05 10:37:29;;;;;;;;;;;;;;;1.62;67.97;95743.50;5030308;28;19959;-74
2022/01/05 10:40:04;;;;;;;;;;;;;;;1.83;65.62;95709.16;5061216;28;19952;-74
2022/01/05 10:42:32;;;;;;;;;;;;;;;2.23;68.49;95742.44;5049348;28;19986;-74
2022/01/05 10:44:58;;;;;;;;;;;;;;;2.64;67.39;95721.91;5051497;28;19980;-75
2022/01/05 10:47:25;;;;;;;;;;;;;;;2.94;67.46;95723.53;5055120;28;19956;-74
2022/01/05 10:49:51;;;;;;;;;;;;;;;3.16;66.14;95699.19;5063802;28;19968;-74
2022/01/05 10:52:28;;;;;;;;;;;;;;;3.34;66.48;95713.47;5052623;28;20452;-74
2022/01/05 10:55:09;;;;;;;;;;;;;;;3.41;65.58;95706.53;5052341;28;19958;-75
2022/01/05 10:57:35;;;;;;;;;;;;;;;3.39;62.37;95664.47;5062439;28;20039;-75
2022/01/05 11:00:01;;;;;;;;;;;;;;;3.45;61.09;95635.97;5063924;28;20000;-74
2022/01/05 11:02:29;;;;;;;;;;;;;;;3.50;62.43;95655.34;5059747;28;19967;-74
2022/01/05 11:05:09;;;;;;;;;;;;;;;3.36;61.33;95642.31;5039649;28;20340;-74
2022/01/05 11:07:39;;;;;;;;;;;;;;;3.30;63.62;95681.13;5059153;28;19953;-75
2022/01/05 11:10:08;;;;;;;;;;;;;;;3.30;63.08;95679.38;5055550;28;20441;-74
2022/01/05 11:12:36;;;;;;;;;;;;;;;3.32;63.32;95677.38;5035933;28;19969;-74
2022/01/05 11:15:21;;;;;;;;;;;;;;;3.25;69.38;95733.53;5057257;28;19954;-76
2022/01/05 11:18:05;;;;;;;;;;;;;;;4.06;85.77;95777.06;5061310;28;20447;-77
2022/01/05 11:20:31;;;;;;;;;;;;;;;4.84;67.30;95665.00;5050910;28;20350;-74
2022/01/05 11:22:57;;;;;;;;;;;;;;;4.82;61.10;95615.03;5072845;28;19962;-74
2022/01/05 11:25:23;;;;;;;;;;;;;;;4.74;64.34;95685.38;5066440;28;20052;-74
2022/01/05 11:27:49;;;;;;;;;;;;;;;4.64;62.85;95662.38;5056610;28;19967;-74
2022/01/05 11:30:15;;;;;;;;;;;;;;;4.47;58.43;95634.22;5056849;28;19971;-74
2022/01/05 11:32:42;;;;;;;;;;;;;;;4.32;59.82;95656.19;5064370;28;19961;-74
2022/01/05 11:35:08;;;;;;;;;;;;;;;4.21;60.54;95676.50;5068198;28;19960;-74
2022/01/05 11:37:35;;;;;;;;;;;;;;;4.00;60.82;95694.81;5058324;28;20451;-74
2022/01/05 11:40:03;;;;;;;;;;;;;;;3.76;58.96;95655.44;5045592;28;19968;-73
2022/01/05 11:42:32;;;;;;;;;;;;;;;3.48;62.27;95706.56;5069001;28;19954;-74
2022/01/05 11:44:58;;;;;;;;;;;;;;;3.20;61.92;95702.22;5067243;28;19957;-74
2022/01/05 11:47:29;;;;;;;;;;;;;;;3.09;64.83;95736.41;5045943;28;20454;-74
2022/01/05 11:50:15;;;;;;;;;;;;;;;2.97;64.50;95741.31;5040853;28;19956;-74
2022/01/05 11:52:55;;;;;;;;;;;;;;;2.88;63.63;95727.72;5052312;28;19958;-74
2022/01/05 11:55:22;;;;;;;;;;;;;;;2.95;64.63;95738.91;5050336;28;20434;-73
2022/01/05 11:58:26;;;;;;;;;;;;;;;2.97;62.25;95716.22;5055371;28;19971;-74
2022/01/05 12:01:11;;;;;;;;;;;;;;;3.01;65.93;95763.25;4979672;28;19956;-74
2022/01/05 12:03:58;;;;;;;;;;;;;;;3.03;66.09;95764.66;5002727;28;19967;-76
2022/01/05 12:06:24;;;;;;;;;;;;;;;3.07;63.84;95739.19;5037952;28;19962;-74
2022/01/05 12:08:51;;;;;;;;;;;;;;;3.09;65.37;95757.94;5053896;28;19966;-75
2022/01/05 12:11:31;;;;;;;;;;;;;;;3.16;63.82;95734.69;5062587;28;19958;-75
2022/01/05 12:13:58;;;;;;;;;;;;;;;3.13;63.48;95722.91;5036527;28;20316;-74
2022/01/05 12:16:24;;;;;;;;;;;;;;;3.14;63.75;95741.84;5073785;28;19949;-73
2022/01/05 12:19:11;;;;;;;;;;;;;;;3.21;65.55;95771.19;5056242;28;19986;-76
2022/01/05 12:21:50;;;;;;;;;;;;;;;3.35;63.29;95741.00;5050839;28;20414;-75
2022/01/05 12:24:17;;;;;;;;;;;;;;;3.40;62.58;95726.47;5040925;28;19955;-73
2022/01/05 12:26:43;;;;;;;;;;;;;;;3.36;62.56;95739.97;5068499;28;20421;-74
2022/01/05 12:29:10;;;;;;;;;;;;;;;3.27;59.72;95715.22;5055035;28;20407;-73
2022/01/05 12:31:56;;;;;;;;;;;;;;;3.18;60.18;95722.34;5025813;28;20412;-74
2022/01/05 12:34:42;;;;;;;;;;;;;;;3.09;61.19;95745.00;5036010;28;19958;-75
2022/01/05 12:37:38;;;;;;;;;;;;;;;3.12;63.09;95777.50;5044727;28;19956;-73
2022/01/05 12:40:33;;;;;;;;;;;;;;;3.05;63.25;95786.00;5046589;28;20411;-73
2022/01/05 12:43:08;;;;;;;;;;;;;;;3.03;63.18;95782.00;5026753;28;19963;-74
2022/01/05 12:45:50;;;;;;;;;;;;;;;3.04;63.50;95791.38;5073912;28;20407;-74
2022/01/05 12:48:31;;;;;;;;;;;;;;;3.05;64.56;95795.56;5044804;28;19956;-74
2022/01/05 12:51:15;;;;;;;;;;;;;;;2.95;59.45;95735.53;5059501;28;20313;-73
2022/01/05 12:54:03;;;;;;;;;;;;;;;2.87;63.07;95779.69;5064577;28;19963;-73
2022/01/05 12:56:39;;;;;;;;;;;;;;;2.89;62.86;95782.88;5064426;28;19962;-73
2022/01/05 12:59:07;;;;;;;;;;;;;;;2.95;61.08;95769.19;5046818;28;20034;-77
2022/01/05 13:01:33;;;;;;;;;;;;;;;2.99;61.92;95760.84;5078940;28;19962;-72